createdAt,value
2018-08-20T00:00:50.944Z,65.30
2018-08-20T00:03:19.454Z,65.30
2018-08-20T00:05:53.376Z,65.70
2018-08-20T00:08:23.172Z,66.10
2018-08-20T00:10:54.133Z,66.70
2018-08-20T00:13:22.665Z,67.10
2018-08-20T00:15:51.220Z,67.30
2018-08-20T00:18:25.228Z,67.80
2018-08-20T00:20:53.888Z,68.60
2018-08-20T00:23:22.961Z,68.20
2018-08-20T00:25:51.626Z,68.60
2018-08-20T00:28:20.148Z,69.00
2018-08-20T00:30:48.649Z,69.20
2018-08-20T00:33:17.133Z,70.00
2018-08-20T00:35:45.665Z,70.70
2018-08-20T00:38:15.464Z,71.30
2018-08-20T00:40:44.181Z,71.70
2018-08-20T00:43:12.857Z,71.90
2018-08-20T00:45:41.667Z,72.10
2018-08-20T00:48:10.304Z,72.50
2018-08-20T00:50:38.817Z,72.80
2018-08-20T00:53:07.351Z,73.50
2018-08-20T00:55:35.820Z,74.00
2018-08-20T00:58:04.366Z,74.00
2018-08-20T01:00:32.861Z,74.30
2018-08-20T01:03:01.370Z,74.60
2018-08-20T01:05:29.856Z,75.30
2018-08-20T01:07:58.353Z,75.80
2018-08-20T01:10:26.833Z,76.50
2018-08-20T01:12:55.342Z,77.20
2018-08-20T01:15:23.833Z,77.70
2018-08-20T01:17:52.313Z,78.30
2018-08-20T01:20:20.864Z,78.80
2018-08-20T01:22:49.369Z,79.70
2018-08-20T01:25:17.884Z,80.10
2018-08-20T01:27:49.961Z,80.70
2018-08-20T01:30:18.512Z,81.50
2018-08-20T01:32:47.009Z,82.70
2018-08-20T01:35:27.081Z,83.20
2018-08-20T01:37:55.654Z,84.10
2018-08-20T01:40:24.657Z,84.90
2018-08-20T01:42:53.144Z,85.60
2018-08-20T01:45:21.665Z,86.40
2018-08-20T01:47:50.182Z,87.20
2018-08-20T01:50:18.664Z,88.50
2018-08-20T01:52:47.166Z,90.00
2018-08-20T01:55:15.693Z,90.20
2018-08-20T01:57:44.233Z,90.60
2018-08-20T02:00:12.756Z,91.10
2018-08-20T02:02:41.301Z,91.60
2018-08-20T02:05:10.094Z,92.00
2018-08-20T02:07:38.896Z,92.40
2018-08-20T02:10:08.064Z,92.70
2018-08-20T02:12:36.624Z,92.90
2018-08-20T02:15:05.362Z,93.30
2018-08-20T02:17:33.882Z,93.70
2018-08-20T02:20:02.441Z,94.00
2018-08-20T02:22:30.993Z,94.40
2018-08-20T02:24:59.680Z,94.60
2018-08-20T02:27:28.212Z,94.90
2018-08-20T02:29:56.944Z,95.60
2018-08-20T02:32:25.449Z,96.00
2018-08-20T02:34:53.937Z,96.40
2018-08-20T02:37:22.740Z,97.20
2018-08-20T02:39:51.163Z,97.70
2018-08-20T02:42:19.629Z,98.30
2018-08-20T02:44:48.066Z,98.70
2018-08-20T02:47:16.544Z,99.20
2018-08-20T02:49:44.994Z,99.60
2018-08-20T02:52:13.410Z,99.90
2018-08-20T02:54:41.848Z,99.90
2018-08-20T02:57:10.263Z,99.90
2018-08-20T02:59:38.687Z,99.90
2018-08-20T03:02:07.201Z,99.90
2018-08-20T03:04:36.368Z,99.90
2018-08-20T03:07:04.959Z,99.90
2018-08-20T03:09:33.378Z,99.90
2018-08-20T03:12:01.839Z,99.90
2018-08-20T03:14:30.247Z,99.90
2018-08-20T03:16:58.699Z,99.90
2018-08-20T03:19:27.131Z,99.90
2018-08-20T03:21:55.586Z,99.90
2018-08-20T03:24:23.994Z,99.90
2018-08-20T03:26:52.415Z,99.90
2018-08-20T03:29:20.863Z,99.90
2018-08-20T03:31:49.323Z,99.90
2018-08-20T03:34:17.747Z,99.90
2018-08-20T03:36:46.171Z,99.90
2018-08-20T03:39:14.627Z,99.90
2018-08-20T03:41:43.054Z,99.90
2018-08-20T03:44:11.499Z,99.90
2018-08-20T03:46:39.910Z,99.90
2018-08-20T03:49:08.319Z,99.90
2018-08-20T03:51:36.746Z,99.90
2018-08-20T03:54:05.286Z,99.90
2018-08-20T03:56:33.723Z,99.90
2018-08-20T03:59:02.138Z,99.90
2018-08-20T04:01:30.571Z,99.90
2018-08-20T04:03:58.975Z,99.90
2018-08-20T04:06:27.391Z,99.90
2018-08-20T04:08:55.861Z,99.90
2018-08-20T04:11:24.284Z,99.90
2018-08-20T04:13:52.732Z,99.90
2018-08-20T04:16:21.139Z,99.90
2018-08-20T04:18:53.823Z,99.90
2018-08-20T04:21:22.227Z,99.90
2018-08-20T04:23:50.632Z,99.90
2018-08-20T04:26:19.075Z,99.90
2018-08-20T04:28:47.482Z,99.90
2018-08-20T04:31:15.923Z,99.90
2018-08-20T04:33:44.331Z,99.90
2018-08-20T04:36:12.743Z,99.90
2018-08-20T04:38:41.187Z,99.90
2018-08-20T04:41:09.595Z,99.90
2018-08-20T04:43:38.030Z,99.90
2018-08-20T04:46:06.475Z,99.90
2018-08-20T04:48:34.884Z,99.90
2018-08-20T04:51:03.542Z,99.90
2018-08-20T04:53:31.766Z,99.90
2018-08-20T04:56:00.199Z,99.90
2018-08-20T04:58:28.615Z,99.90
2018-08-20T05:00:57.042Z,99.90
2018-08-20T05:03:25.467Z,99.90
2018-08-20T05:05:53.895Z,99.90
2018-08-20T05:08:22.339Z,99.90
2018-08-20T05:10:50.804Z,99.90
2018-08-20T05:13:19.240Z,99.90
2018-08-20T05:15:47.674Z,99.90
2018-08-20T05:18:16.251Z,99.90
2018-08-20T05:20:44.691Z,99.90
2018-08-20T05:23:13.149Z,99.90
2018-08-20T05:25:41.607Z,99.90
2018-08-20T05:28:10.027Z,99.90
2018-08-20T05:30:38.471Z,99.90
2018-08-20T05:33:07.228Z,99.90
2018-08-20T05:35:35.642Z,99.90
2018-08-20T05:38:04.095Z,99.90
2018-08-20T05:40:32.508Z,99.90
2018-08-20T05:43:00.943Z,99.90
2018-08-20T05:45:29.377Z,99.90
2018-08-20T05:47:57.823Z,99.90
2018-08-20T05:50:26.231Z,99.90
2018-08-20T05:52:54.643Z,99.90
2018-08-20T05:55:23.083Z,99.90
2018-08-20T05:57:51.496Z,99.90
2018-08-20T06:00:20.027Z,99.90
2018-08-20T06:02:48.460Z,99.90
2018-08-20T06:05:16.907Z,99.90
2018-08-20T06:07:45.367Z,99.90
2018-08-20T06:10:13.814Z,99.90
2018-08-20T06:12:42.227Z,99.90
2018-08-20T06:15:13.133Z,99.90
2018-08-20T06:17:41.690Z,99.90
2018-08-20T06:20:13.891Z,99.90
2018-08-20T06:22:42.443Z,99.90
2018-08-20T06:25:12.115Z,99.90
2018-08-20T06:27:41.132Z,99.90
2018-08-20T06:30:13.146Z,99.90
2018-08-20T06:32:41.619Z,99.90
2018-08-20T06:35:11.064Z,99.90
2018-08-20T06:37:39.571Z,99.90
2018-08-20T06:40:11.491Z,99.90
2018-08-20T06:42:39.994Z,99.90
2018-08-20T06:45:11.644Z,99.90
2018-08-20T06:47:40.458Z,99.90
2018-08-20T06:50:08.911Z,99.90
2018-08-20T06:52:37.363Z,99.90
2018-08-20T06:55:06.289Z,99.90
2018-08-20T06:57:34.861Z,99.90
2018-08-20T07:00:03.628Z,99.90
2018-08-20T07:02:32.063Z,99.90
2018-08-20T07:05:00.482Z,99.90
2018-08-20T07:07:28.911Z,99.90
2018-08-20T07:09:57.332Z,99.90
2018-08-20T07:12:25.795Z,99.90
2018-08-20T07:14:54.231Z,99.90
2018-08-20T07:17:22.701Z,99.90
2018-08-20T07:19:51.107Z,99.90
2018-08-20T07:22:19.550Z,99.90
2018-08-20T07:24:47.999Z,99.90
2018-08-20T07:27:16.416Z,99.90
2018-08-20T07:29:45.604Z,99.90
2018-08-20T07:32:15.255Z,99.90
2018-08-20T07:34:44.874Z,99.90
2018-08-20T07:37:17.269Z,99.90
2018-08-20T07:39:47.993Z,99.90
2018-08-20T07:42:16.448Z,99.90
2018-08-20T07:44:45.746Z,99.90
2018-08-20T07:47:14.195Z,99.90
2018-08-20T07:49:42.651Z,99.90
2018-08-20T07:52:11.727Z,99.90
2018-08-20T07:54:40.803Z,99.90
2018-08-20T07:57:10.415Z,99.90
2018-08-20T07:59:39.060Z,99.90
2018-08-20T08:02:08.403Z,99.90
2018-08-20T08:04:36.891Z,99.90
2018-08-20T08:07:05.370Z,99.90
2018-08-20T08:09:33.831Z,99.90
2018-08-20T08:12:02.322Z,99.90
2018-08-20T08:14:30.792Z,99.90
2018-08-20T08:16:59.299Z,99.90
2018-08-20T08:19:27.759Z,99.90
2018-08-20T08:21:56.214Z,99.90
2018-08-20T08:24:24.667Z,99.90
2018-08-20T08:26:53.142Z,99.90
2018-08-20T08:29:21.590Z,99.90
2018-08-20T08:31:50.026Z,99.90
2018-08-20T08:34:18.467Z,99.90
2018-08-20T08:36:46.895Z,99.90
2018-08-20T08:39:15.347Z,99.90
2018-08-20T08:41:43.799Z,99.90
2018-08-20T08:44:12.228Z,99.90
2018-08-20T08:46:40.713Z,99.90
2018-08-20T08:49:09.138Z,99.90
2018-08-20T08:51:37.668Z,99.90
2018-08-20T08:54:06.111Z,99.90
2018-08-20T08:56:34.563Z,99.90
2018-08-20T08:59:03.040Z,99.90
2018-08-20T09:01:31.490Z,99.90
2018-08-20T09:03:59.979Z,99.90
2018-08-20T09:06:28.440Z,99.90
2018-08-20T09:08:56.933Z,99.90
2018-08-20T09:11:25.410Z,99.90
2018-08-20T09:13:53.849Z,99.90
2018-08-20T09:16:22.327Z,99.90
2018-08-20T09:18:50.735Z,99.90
2018-08-20T09:21:19.171Z,99.90
2018-08-20T09:23:47.587Z,99.90
2018-08-20T09:26:16.035Z,99.90
2018-08-20T09:28:44.459Z,99.90
2018-08-20T09:31:12.916Z,99.60
2018-08-20T09:33:41.343Z,99.20
2018-08-20T09:36:09.831Z,99.00
2018-08-20T09:38:38.246Z,98.50
2018-08-20T09:41:06.756Z,98.20
2018-08-20T09:43:35.185Z,97.90
2018-08-20T09:46:03.630Z,96.20
2018-08-20T09:48:32.039Z,94.90
2018-08-20T09:51:00.451Z,94.80
2018-08-20T09:53:28.943Z,94.40
2018-08-20T09:55:57.314Z,94.60
2018-08-20T09:58:25.746Z,94.00
2018-08-20T10:00:54.183Z,92.90
2018-08-20T10:03:22.615Z,92.20
2018-08-20T10:05:51.052Z,91.40
2018-08-20T10:08:19.480Z,91.10
2018-08-20T10:10:47.923Z,89.90
2018-08-20T10:13:16.359Z,85.90
2018-08-20T10:15:44.812Z,85.00
2018-08-20T10:18:13.227Z,79.70
2018-08-20T10:20:41.683Z,72.70
2018-08-20T10:23:10.180Z,68.60
2018-08-20T10:25:38.588Z,64.60
2018-08-20T10:28:07.085Z,61.10
2018-08-20T10:30:35.531Z,58.00
2018-08-20T10:33:03.986Z,55.50
2018-08-20T10:35:32.386Z,53.00
2018-08-20T10:38:00.890Z,49.20
2018-08-20T10:40:29.275Z,48.10
2018-08-20T10:42:57.730Z,47.20
2018-08-20T10:45:31.981Z,46.90
2018-08-20T10:48:00.513Z,45.90
2018-08-20T10:50:28.990Z,46.00
2018-08-20T10:52:57.439Z,45.10
2018-08-20T10:55:25.897Z,44.60
2018-08-20T10:57:54.335Z,43.90
2018-08-20T11:00:22.805Z,42.80
2018-08-20T11:02:51.239Z,41.40
2018-08-20T11:05:19.963Z,40.90
2018-08-20T11:07:48.427Z,40.50
2018-08-20T11:10:16.891Z,40.90
2018-08-20T11:12:45.359Z,39.90
2018-08-20T11:15:13.835Z,38.20
2018-08-20T11:17:42.287Z,36.70
2018-08-20T11:20:13.386Z,37.50
2018-08-20T11:22:42.310Z,37.60
2018-08-20T11:25:11.687Z,37.20
2018-08-20T11:27:40.356Z,37.60
2018-08-20T11:30:11.521Z,37.20
2018-08-20T11:32:39.931Z,37.70
2018-08-20T11:35:09.112Z,38.20
2018-08-20T11:37:37.519Z,39.10
2018-08-20T11:40:06.899Z,39.70
2018-08-20T11:42:35.308Z,38.20
2018-08-20T11:45:03.831Z,37.60
2018-08-20T11:47:32.280Z,35.80
2018-08-20T11:50:00.787Z,33.30
2018-08-20T11:52:29.187Z,33.60
2018-08-20T11:54:57.595Z,34.40
2018-08-20T11:57:26.028Z,34.00
2018-08-20T11:59:54.435Z,34.90
2018-08-20T12:02:22.891Z,34.30
2018-08-20T12:04:51.303Z,35.20
2018-08-20T12:07:19.832Z,36.20
2018-08-20T12:09:48.552Z,37.20
2018-08-20T12:12:17.059Z,38.00
2018-08-20T12:14:45.499Z,38.90
2018-08-20T12:17:13.962Z,40.30
2018-08-20T12:19:42.435Z,41.20
2018-08-20T12:22:10.876Z,41.70
2018-08-20T12:24:39.303Z,41.90
2018-08-20T12:27:07.775Z,42.70
2018-08-20T12:29:36.203Z,43.80
2018-08-20T12:32:04.655Z,44.40
2018-08-20T12:34:33.059Z,44.50
2018-08-20T12:37:01.493Z,45.00
2018-08-20T12:39:29.891Z,45.20
2018-08-20T12:41:58.323Z,45.60
2018-08-20T12:44:26.722Z,46.10
2018-08-20T12:46:55.155Z,46.60
2018-08-20T12:49:23.571Z,46.40
2018-08-20T12:51:51.983Z,45.50
2018-08-20T12:54:20.419Z,45.10
2018-08-20T12:56:48.835Z,45.70
2018-08-20T12:59:17.283Z,45.60
2018-08-20T13:01:45.692Z,46.30
2018-08-20T13:04:14.123Z,46.70
2018-08-20T13:06:42.528Z,47.00
2018-08-20T13:09:10.967Z,47.00
2018-08-20T13:11:39.379Z,47.40
2018-08-20T13:14:07.862Z,47.40
2018-08-20T13:16:36.319Z,47.00
2018-08-20T13:19:04.762Z,45.50
2018-08-20T13:21:33.207Z,44.40
2018-08-20T13:24:01.616Z,44.50
2018-08-20T13:26:30.051Z,43.70
2018-08-20T13:28:58.468Z,42.50
2018-08-20T13:31:26.903Z,41.60
2018-08-20T13:33:55.331Z,40.40
2018-08-20T13:36:23.752Z,38.80
2018-08-20T13:38:52.215Z,38.30
2018-08-20T13:41:20.703Z,37.20
2018-08-20T13:43:49.208Z,35.90
2018-08-20T13:46:17.601Z,34.20
2018-08-20T13:48:46.035Z,34.20
2018-08-20T13:51:14.475Z,34.70
2018-08-20T13:53:42.911Z,35.90
2018-08-20T13:56:11.363Z,36.30
2018-08-20T13:58:39.767Z,36.80
2018-08-20T14:01:08.198Z,36.70
2018-08-20T14:03:36.599Z,37.30
2018-08-20T14:06:05.048Z,38.50
2018-08-20T14:08:33.457Z,38.70
2018-08-20T14:11:01.921Z,37.90
2018-08-20T14:13:30.355Z,37.50
2018-08-20T14:15:58.780Z,37.10
2018-08-20T14:18:27.262Z,37.10
2018-08-20T14:21:03.816Z,37.40
2018-08-20T14:23:32.276Z,37.50
2018-08-20T14:26:00.771Z,37.90
2018-08-20T14:28:29.892Z,37.90
2018-08-20T14:30:58.316Z,38.30
2018-08-20T14:33:26.748Z,38.40
2018-08-20T14:35:55.224Z,38.90
2018-08-20T14:38:23.671Z,39.20
2018-08-20T14:40:52.114Z,39.60
2018-08-20T14:43:20.595Z,40.00
2018-08-20T14:45:54.459Z,40.40
2018-08-20T14:48:22.892Z,40.80
2018-08-20T14:50:51.376Z,40.90
2018-08-20T14:53:19.839Z,40.90
2018-08-20T14:55:48.223Z,41.10
2018-08-20T14:58:16.707Z,40.90
2018-08-20T15:00:45.141Z,41.00
2018-08-20T15:03:13.584Z,40.90
2018-08-20T15:05:41.987Z,40.80
2018-08-20T15:08:10.443Z,40.60
2018-08-20T15:10:38.850Z,40.80
2018-08-20T15:13:07.567Z,40.90
2018-08-20T15:15:36.113Z,42.20
2018-08-20T15:18:04.459Z,42.30
2018-08-20T15:20:32.891Z,42.80
2018-08-20T15:23:01.296Z,42.90
2018-08-20T15:25:29.751Z,42.80
2018-08-20T15:27:58.161Z,43.10
2018-08-20T15:30:26.580Z,43.30
2018-08-20T15:32:55.017Z,43.20
2018-08-20T15:35:23.426Z,42.90
2018-08-20T15:37:51.866Z,43.20
2018-08-20T15:40:20.403Z,43.60
2018-08-20T15:42:48.823Z,43.30
2018-08-20T15:45:17.278Z,43.30
2018-08-20T15:47:45.719Z,43.10
2018-08-20T15:50:14.196Z,42.80
2018-08-20T15:52:42.624Z,42.80
2018-08-20T15:55:11.099Z,43.10
2018-08-20T15:57:39.527Z,42.90
2018-08-20T16:00:09.435Z,43.10
2018-08-20T16:02:38.329Z,43.60
2018-08-20T16:05:07.143Z,44.10
2018-08-20T16:07:35.556Z,44.20
2018-08-20T16:10:04.831Z,44.50
2018-08-20T16:12:33.250Z,44.20
2018-08-20T16:15:01.677Z,44.30
2018-08-20T16:17:30.083Z,44.80
2018-08-20T16:19:58.514Z,44.90
2018-08-20T16:22:26.922Z,45.10
2018-08-20T16:24:55.355Z,45.50
2018-08-20T16:27:23.776Z,45.50
2018-08-20T16:29:52.347Z,45.70
2018-08-20T16:32:20.803Z,46.10
2018-08-20T16:34:49.249Z,46.50
2018-08-20T16:37:17.707Z,47.00
2018-08-20T16:39:46.250Z,47.30
2018-08-20T16:42:14.619Z,47.20
2018-08-20T16:44:43.058Z,47.50
2018-08-20T16:47:11.506Z,47.30
2018-08-20T16:49:39.939Z,47.50
2018-08-20T16:52:08.378Z,47.70
2018-08-20T16:54:36.811Z,47.80
2018-08-20T16:57:05.302Z,47.90
2018-08-20T16:59:33.735Z,47.70
2018-08-20T17:02:02.193Z,48.00
2018-08-20T17:04:45.419Z,48.30
2018-08-20T17:07:13.852Z,48.00
2018-08-20T17:09:42.302Z,47.80
2018-08-20T17:12:10.699Z,48.20
2018-08-20T17:14:39.122Z,47.90
2018-08-20T17:17:07.543Z,48.80
2018-08-20T17:19:35.951Z,48.40
2018-08-20T17:22:04.439Z,48.50
2018-08-20T17:24:39.883Z,48.90
2018-08-20T17:27:08.502Z,48.70
2018-08-20T17:29:37.007Z,48.90
2018-08-20T17:32:06.775Z,48.70
2018-08-20T17:34:37.858Z,48.90
2018-08-20T17:37:06.346Z,48.80
2018-08-20T17:39:40.176Z,49.20
2018-08-20T17:42:08.622Z,49.30
2018-08-20T17:44:37.047Z,49.70
2018-08-20T17:47:07.505Z,49.90
2018-08-20T17:49:35.992Z,50.10
2018-08-20T17:52:04.475Z,50.30
2018-08-20T17:54:32.896Z,50.90
2018-08-20T17:57:01.304Z,50.80
2018-08-20T17:59:29.723Z,51.40
2018-08-20T18:01:58.156Z,51.40
2018-08-20T18:04:26.644Z,51.50
2018-08-20T18:06:55.919Z,52.10
2018-08-20T18:09:24.379Z,52.40
2018-08-20T18:11:54.134Z,52.60
2018-08-20T18:14:23.714Z,52.90
2018-08-20T18:16:52.199Z,53.00
2018-08-20T18:19:20.671Z,53.30
2018-08-20T18:21:49.454Z,53.60
2018-08-20T18:24:19.281Z,53.70
2018-08-20T18:26:49.427Z,54.10
2018-08-20T18:29:17.876Z,54.40
2018-08-20T18:31:50.072Z,54.70
2018-08-20T18:34:18.495Z,54.80
2018-08-20T18:36:46.955Z,55.20
2018-08-20T18:39:15.407Z,55.20
2018-08-20T18:41:53.659Z,55.40
2018-08-20T18:44:23.240Z,56.10
2018-08-20T18:46:52.103Z,55.50
2018-08-20T18:49:21.632Z,55.80
2018-08-20T18:51:58.559Z,56.00
2018-08-20T18:54:27.194Z,56.20
2018-08-20T18:56:59.816Z,56.30
2018-08-20T18:59:28.310Z,56.70
2018-08-20T19:01:56.775Z,56.90
2018-08-20T19:04:25.530Z,57.20
2018-08-20T19:06:58.610Z,57.30
2018-08-20T19:09:27.030Z,57.50
2018-08-20T19:11:55.474Z,57.80
2018-08-20T19:14:23.977Z,58.00
2018-08-20T19:16:52.458Z,58.40
2018-08-20T19:19:20.867Z,58.50
2018-08-20T19:21:49.295Z,58.80
2018-08-20T19:24:17.750Z,59.00
2018-08-20T19:26:46.331Z,59.20
2018-08-20T19:29:28.489Z,59.50
2018-08-20T19:31:56.949Z,59.60
2018-08-20T19:34:25.364Z,59.80
2018-08-20T19:36:53.783Z,60.40
2018-08-20T19:39:22.254Z,60.60
2018-08-20T19:41:50.660Z,61.00
2018-08-20T19:44:19.143Z,61.50
2018-08-20T19:46:47.542Z,62.80
2018-08-20T19:49:16.315Z,62.20
2018-08-20T19:51:45.644Z,62.70
2018-08-20T19:54:16.375Z,63.10
2018-08-20T19:56:44.823Z,63.40
2018-08-20T19:59:13.975Z,64.00
2018-08-20T20:01:42.439Z,64.20
2018-08-20T20:04:13.450Z,64.60
2018-08-20T20:06:42.694Z,65.00
2018-08-20T20:09:11.658Z,65.30
2018-08-20T20:11:42.126Z,65.90
2018-08-20T20:14:10.580Z,66.20
2018-08-20T20:16:44.247Z,66.80
2018-08-20T20:19:12.702Z,67.20
2018-08-20T20:21:41.187Z,67.70
2018-08-20T20:24:10.315Z,68.30
2018-08-20T20:26:38.980Z,69.00
2018-08-20T20:29:08.516Z,69.50
2018-08-20T20:31:37.818Z,69.80
2018-08-20T20:34:06.340Z,71.30
2018-08-20T20:36:34.774Z,71.40
2018-08-20T20:39:03.318Z,71.80
2018-08-20T20:41:31.763Z,73.40
2018-08-20T20:44:00.231Z,73.20
2018-08-20T20:46:28.698Z,74.20
2018-08-20T20:48:57.275Z,74.70
2018-08-20T20:51:25.724Z,75.60
2018-08-20T20:53:54.194Z,76.20
2018-08-20T20:56:22.653Z,77.00
2018-08-20T20:58:51.098Z,78.10
2018-08-20T21:01:19.568Z,79.10
2018-08-20T21:03:48.031Z,80.10
2018-08-20T21:06:16.487Z,81.20
2018-08-20T21:08:50.658Z,81.70
2018-08-20T21:11:20.450Z,82.50
2018-08-20T21:13:49.062Z,83.50
2018-08-20T21:16:20.990Z,84.60
2018-08-20T21:18:54.558Z,86.00
2018-08-20T21:21:23.386Z,87.30
2018-08-20T21:23:51.813Z,87.90
2018-08-20T21:26:20.371Z,89.00
2018-08-20T21:28:53.770Z,90.20
2018-08-20T21:31:23.479Z,90.80
2018-08-20T21:33:59.004Z,91.70
2018-08-20T21:36:27.475Z,92.00
2018-08-20T21:38:55.979Z,92.90
2018-08-20T21:41:27.240Z,93.20
2018-08-20T21:43:55.726Z,93.70
2018-08-20T21:46:24.227Z,94.40
2018-08-20T21:48:52.706Z,95.00
2018-08-20T21:51:23.794Z,95.50
2018-08-20T21:53:52.258Z,95.90
2018-08-20T21:56:20.757Z,96.30
2018-08-20T21:58:49.198Z,96.70
2018-08-20T22:01:18.184Z,97.10
2018-08-20T22:03:46.871Z,97.50
2018-08-20T22:06:15.390Z,97.80
2018-08-20T22:08:43.835Z,98.20
2018-08-20T22:11:12.584Z,98.60
2018-08-20T22:13:41.095Z,99.00
2018-08-20T22:16:16.670Z,99.30
2018-08-20T22:18:46.431Z,99.70
2018-08-20T22:21:16.866Z,99.90
2018-08-20T22:23:46.067Z,99.90
2018-08-20T22:26:16.875Z,99.90
2018-08-20T22:28:45.459Z,99.90
2018-08-20T22:31:13.979Z,99.90
2018-08-20T22:33:42.470Z,99.90
2018-08-20T22:36:13.007Z,99.90
2018-08-20T22:38:47.750Z,99.90
2018-08-20T22:41:16.983Z,99.90
2018-08-20T22:43:45.394Z,99.90
2018-08-20T22:46:13.839Z,99.90
2018-08-20T22:48:42.251Z,99.90
2018-08-20T22:51:18.039Z,99.90
2018-08-20T22:53:50.767Z,99.90
2018-08-20T22:56:25.693Z,99.90
2018-08-20T22:58:57.451Z,99.90
2018-08-20T23:01:25.975Z,99.90
2018-08-20T23:03:54.411Z,99.90
2018-08-20T23:06:22.991Z,99.90
2018-08-20T23:08:51.490Z,99.90
2018-08-20T23:11:38.496Z,99.90
2018-08-20T23:14:08.740Z,99.90
2018-08-20T23:16:37.498Z,99.90
2018-08-20T23:19:06.243Z,99.90
2018-08-20T23:21:40.067Z,99.90
2018-08-20T23:24:08.654Z,99.90
2018-08-20T23:26:37.099Z,99.90
2018-08-20T23:29:05.626Z,99.90
2018-08-20T23:31:34.234Z,99.90
2018-08-20T23:34:02.744Z,99.90
2018-08-20T23:36:31.170Z,99.90
2018-08-20T23:38:59.625Z,99.90
2018-08-20T23:41:28.138Z,99.90
2018-08-20T23:44:00.218Z,99.90
2018-08-20T23:46:35.073Z,99.90
2018-08-20T23:49:03.938Z,99.90
2018-08-20T23:51:32.467Z,99.90
2018-08-20T23:54:00.940Z,99.90
2018-08-20T23:56:29.478Z,99.90
2018-08-20T23:58:58.199Z,99.90
